sensor_id;sensor_type;location;lat;lon;timestamp;pressure;altitude;pressure_sealevel;temperature;humidity
6024;BME280;3040;42.654;23.296;2023-08-17T00:01:44;94340.22;;;23.29;70.35
6024;BME280;3040;42.654;23.296;2023-08-17T00:04:11;94337.22;;;23.23;70.79
6024;BME280;3040;42.654;23.296;2023-08-17T00:06:37;94357.78;;;23.24;70.39
6024;BME280;3040;42.654;23.296;2023-08-17T00:09:04;94348.50;;;23.22;70.25
6024;BME280;3040;42.654;23.296;2023-08-17T00:11:31;94335.00;;;23.18;70.35
6024;BME280;3040;42.654;23.296;2023-08-17T00:14:00;94345.44;;;23.20;70.57
6024;BME280;3040;42.654;23.296;2023-08-17T00:16:27;94351.19;;;23.02;71.26
6024;BME280;3040;42.654;23.296;2023-08-17T00:18:53;94224.19;;;22.27;71.17
6024;BME280;3040;42.654;23.296;2023-08-17T00:21:20;94332.31;;;22.95;71.26
6024;BME280;3040;42.654;23.296;2023-08-17T00:23:47;94350.16;;;23.16;70.95
6024;BME280;3040;42.654;23.296;2023-08-17T00:26:14;94336.72;;;23.08;71.21
6024;BME280;3040;42.654;23.296;2023-08-17T00:28:41;94334.94;;;22.98;71.69
6024;BME280;3040;42.654;23.296;2023-08-17T00:31:09;94350.56;;;22.91;72.01
6024;BME280;3040;42.654;23.296;2023-08-17T00:33:36;94349.41;;;22.92;72.04
6024;BME280;3040;42.654;23.296;2023-08-17T00:36:03;94333.56;;;22.90;71.79
6024;BME280;3040;42.654;23.296;2023-08-17T00:38:30;94342.69;;;23.00;71.49
6024;BME280;3040;42.654;23.296;2023-08-17T00:40:57;94337.34;;;22.96;71.01
6024;BME280;3040;42.654;23.296;2023-08-17T00:43:24;94339.56;;;23.01;70.67
6024;BME280;3040;42.654;23.296;2023-08-17T00:45:51;94276.75;;;22.56;70.11
6024;BME280;3040;42.654;23.296;2023-08-17T00:48:19;94339.78;;;22.87;70.04
6024;BME280;3040;42.654;23.296;2023-08-17T00:50:47;94326.00;;;22.78;69.09
6024;BME280;3040;42.654;23.296;2023-08-17T00:53:15;94333.97;;;22.89;68.73
6024;BME280;3040;42.654;23.296;2023-08-17T00:55:43;94324.00;;;22.82;67.92
6024;BME280;3040;42.654;23.296;2023-08-17T00:58:10;94336.69;;;22.89;67.56
6024;BME280;3040;42.654;23.296;2023-08-17T01:00:37;94333.09;;;22.95;67.23
6024;BME280;3040;42.654;23.296;2023-08-17T01:03:04;94336.78;;;23.05;66.46
6024;BME280;3040;42.654;23.296;2023-08-17T01:05:32;94327.06;;;23.07;65.95
6024;BME280;3040;42.654;23.296;2023-08-17T01:07:59;94336.94;;;23.18;65.30
6024;BME280;3040;42.654;23.296;2023-08-17T01:10:31;94164.72;;;21.93;64.90
6024;BME280;3040;42.654;23.296;2023-08-17T01:13:04;94331.34;;;23.05;65.09
6024;BME280;3040;42.654;23.296;2023-08-17T01:15:36;94304.41;;;22.71;64.68
6024;BME280;3040;42.654;23.296;2023-08-17T01:18:11;94326.72;;;22.82;64.93
6024;BME280;3040;42.654;23.296;2023-08-17T01:20:44;94326.81;;;22.75;64.48
6024;BME280;3040;42.654;23.296;2023-08-17T01:23:13;94291.16;;;22.50;64.17
6024;BME280;3040;42.654;23.296;2023-08-17T01:25:40;94319.50;;;22.45;64.20
6024;BME280;3040;42.654;23.296;2023-08-17T01:28:07;94307.66;;;22.36;64.40
6024;BME280;3040;42.654;23.296;2023-08-17T01:30:39;94323.22;;;22.55;63.90
6024;BME280;3040;42.654;23.296;2023-08-17T01:33:09;94314.03;;;22.49;63.81
6024;BME280;3040;42.654;23.296;2023-08-17T01:35:41;94312.75;;;22.57;63.39
6024;BME280;3040;42.654;23.296;2023-08-17T01:38:16;94315.47;;;22.57;63.00
6024;BME280;3040;42.654;23.296;2023-08-17T01:40:44;94219.47;;;21.77;62.59
6024;BME280;3040;42.654;23.296;2023-08-17T01:43:12;94288.13;;;22.48;62.47
6024;BME280;3040;42.654;23.296;2023-08-17T01:45:39;94317.66;;;22.65;62.20
6024;BME280;3040;42.654;23.296;2023-08-17T01:48:06;94315.34;;;22.64;62.14
6024;BME280;3040;42.654;23.296;2023-08-17T01:50:32;94321.84;;;22.43;62.45
6024;BME280;3040;42.654;23.296;2023-08-17T01:52:59;94320.13;;;22.56;61.97
6024;BME280;3040;42.654;23.296;2023-08-17T01:55:28;94317.47;;;22.53;62.03
6024;BME280;3040;42.654;23.296;2023-08-17T01:57:55;94213.47;;;21.93;61.21
6024;BME280;3040;42.654;23.296;2023-08-17T02:00:21;94314.66;;;22.60;60.92
6024;BME280;3040;42.654;23.296;2023-08-17T02:02:48;94310.88;;;22.54;60.39
6024;BME280;3040;42.654;23.296;2023-08-17T02:05:15;94296.88;;;22.32;61.23
6024;BME280;3040;42.654;23.296;2023-08-17T02:07:42;94318.34;;;22.46;61.59
6024;BME280;3040;42.654;23.296;2023-08-17T02:10:09;94310.38;;;22.36;62.10
6024;BME280;3040;42.654;23.296;2023-08-17T02:12:37;94317.38;;;22.33;61.96
6024;BME280;3040;42.654;23.296;2023-08-17T02:15:05;94314.47;;;22.20;62.25
6024;BME280;3040;42.654;23.296;2023-08-17T02:17:31;94315.94;;;22.25;62.46
6024;BME280;3040;42.654;23.296;2023-08-17T02:19:58;94278.63;;;22.09;62.29
6024;BME280;3040;42.654;23.296;2023-08-17T02:22:25;94311.44;;;22.42;62.29
6024;BME280;3040;42.654;23.296;2023-08-17T02:24:52;94306.38;;;22.44;62.25
6024;BME280;3040;42.654;23.296;2023-08-17T02:27:18;94314.75;;;22.53;62.19
6024;BME280;3040;42.654;23.296;2023-08-17T02:29:46;94309.06;;;22.44;62.08
6024;BME280;3040;42.654;23.296;2023-08-17T02:32:13;94311.75;;;22.47;61.96
6024;BME280;3040;42.654;23.296;2023-08-17T02:34:40;94311.03;;;22.43;62.31
6024;BME280;3040;42.654;23.296;2023-08-17T02:37:07;94316.44;;;22.43;62.21
6024;BME280;3040;42.654;23.296;2023-08-17T02:39:33;94317.06;;;22.54;61.69
6024;BME280;3040;42.654;23.296;2023-08-17T02:42:00;94316.31;;;22.54;61.69
6024;BME280;3040;42.654;23.296;2023-08-17T02:44:27;94307.19;;;22.41;61.74
6024;BME280;3040;42.654;23.296;2023-08-17T02:46:55;94310.38;;;22.36;62.04
6024;BME280;3040;42.654;23.296;2023-08-17T02:49:22;94287.91;;;22.12;62.25
6024;BME280;3040;42.654;23.296;2023-08-17T02:51:48;94182.13;;;21.38;62.82
6024;BME280;3040;42.654;23.296;2023-08-17T02:54:15;94302.09;;;22.19;62.93
6024;BME280;3040;42.654;23.296;2023-08-17T02:56:42;94304.19;;;22.08;63.48
6024;BME280;3040;42.654;23.296;2023-08-17T02:59:09;94310.91;;;21.97;63.80
6024;BME280;3040;42.654;23.296;2023-08-17T03:01:35;94285.69;;;21.73;64.77
6024;BME280;3040;42.654;23.296;2023-08-17T03:04:04;94261.00;;;21.67;63.99
6024;BME280;3040;42.654;23.296;2023-08-17T03:06:30;94306.19;;;22.04;63.64
6024;BME280;3040;42.654;23.296;2023-08-17T03:08:57;94307.16;;;21.87;64.17
6024;BME280;3040;42.654;23.296;2023-08-17T03:11:24;94232.09;;;21.30;64.32
6024;BME280;3040;42.654;23.296;2023-08-17T03:13:51;94305.56;;;21.89;64.06
6024;BME280;3040;42.654;23.296;2023-08-17T03:16:20;94206.75;;;21.13;63.77
6024;BME280;3040;42.654;23.296;2023-08-17T03:18:47;94312.69;;;21.76;64.46
6024;BME280;3040;42.654;23.296;2023-08-17T03:21:15;94225.91;;;21.30;64.05
6024;BME280;3040;42.654;23.296;2023-08-17T03:23:43;94306.00;;;21.88;63.73
6024;BME280;3040;42.654;23.296;2023-08-17T03:26:09;94302.34;;;22.02;63.74
6024;BME280;3040;42.654;23.296;2023-08-17T03:28:36;94303.72;;;22.13;63.31
6024;BME280;3040;42.654;23.296;2023-08-17T03:31:03;94274.50;;;22.01;63.45
6024;BME280;3040;42.654;23.296;2023-08-17T03:33:30;94312.03;;;22.29;63.44
6024;BME280;3040;42.654;23.296;2023-08-17T03:35:57;94310.81;;;22.30;63.32
6024;BME280;3040;42.654;23.296;2023-08-17T03:38:25;94316.19;;;22.07;63.34
6024;BME280;3040;42.654;23.296;2023-08-17T03:40:52;94322.53;;;21.97;63.45
6024;BME280;3040;42.654;23.296;2023-08-17T03:43:19;94322.66;;;21.83;63.83
6024;BME280;3040;42.654;23.296;2023-08-17T03:45:46;94322.59;;;21.90;63.18
6024;BME280;3040;42.654;23.296;2023-08-17T03:48:12;94326.56;;;21.51;63.89
6024;BME280;3040;42.654;23.296;2023-08-17T03:50:39;94319.66;;;21.06;65.29
6024;BME280;3040;42.654;23.296;2023-08-17T03:53:06;94320.31;;;21.21;65.07
6024;BME280;3040;42.654;23.296;2023-08-17T03:55:34;94331.16;;;21.17;64.50
6024;BME280;3040;42.654;23.296;2023-08-17T03:58:00;94333.66;;;20.97;65.20
6024;BME280;3040;42.654;23.296;2023-08-17T04:00:27;94332.31;;;21.16;64.24
6024;BME280;3040;42.654;23.296;2023-08-17T04:02:54;94338.00;;;21.29;64.19
6024;BME280;3040;42.654;23.296;2023-08-17T04:05:21;94339.06;;;21.38;63.53
6024;BME280;3040;42.654;23.296;2023-08-17T04:07:48;93866.50;;;18.41;62.20
6024;BME280;3040;42.654;23.296;2023-08-17T04:10:15;94340.75;;;21.59;62.21
6024;BME280;3040;42.654;23.296;2023-08-17T04:12:43;94345.16;;;21.80;60.89
6024;BME280;3040;42.654;23.296;2023-08-17T04:15:10;94336.38;;;22.03;60.60
6024;BME280;3040;42.654;23.296;2023-08-17T04:17:36;94333.44;;;22.20;59.77
6024;BME280;3040;42.654;23.296;2023-08-17T04:20:04;94339.22;;;22.22;60.17
6024;BME280;3040;42.654;23.296;2023-08-17T04:22:31;94328.13;;;22.40;59.72
6024;BME280;3040;42.654;23.296;2023-08-17T04:24:58;94288.84;;;22.25;59.41
6024;BME280;3040;42.654;23.296;2023-08-17T04:27:24;94337.66;;;22.75;58.77
6024;BME280;3040;42.654;23.296;2023-08-17T04:29:53;94336.19;;;22.94;59.23
6024;BME280;3040;42.654;23.296;2023-08-17T04:32:19;94305.00;;;22.82;57.88
6024;BME280;3040;42.654;23.296;2023-08-17T04:34:46;94331.88;;;23.20;57.69
6024;BME280;3040;42.654;23.296;2023-08-17T04:37:13;94329.75;;;23.31;57.68
6024;BME280;3040;42.654;23.296;2023-08-17T04:39:40;94334.88;;;23.45;56.99
6024;BME280;3040;42.654;23.296;2023-08-17T04:42:08;94342.44;;;23.57;57.08
6024;BME280;3040;42.654;23.296;2023-08-17T04:44:35;94305.94;;;23.38;56.97
6024;BME280;3040;42.654;23.296;2023-08-17T04:47:03;94331.94;;;23.59;56.69
6024;BME280;3040;42.654;23.296;2023-08-17T04:49:30;94335.34;;;23.63;56.52
6024;BME280;3040;42.654;23.296;2023-08-17T04:51:57;94337.03;;;23.77;55.93
6024;BME280;3040;42.654;23.296;2023-08-17T04:54:24;94341.91;;;23.85;55.80
6024;BME280;3040;42.654;23.296;2023-08-17T04:56:51;94330.91;;;23.92;55.33
6024;BME280;3040;42.654;23.296;2023-08-17T04:59:17;94337.53;;;24.08;55.21
6024;BME280;3040;42.654;23.296;2023-08-17T05:01:44;94334.47;;;24.06;54.11
6024;BME280;3040;42.654;23.296;2023-08-17T05:04:12;94328.13;;;24.12;53.95
6024;BME280;3040;42.654;23.296;2023-08-17T05:06:39;94341.72;;;24.32;54.01
6024;BME280;3040;42.654;23.296;2023-08-17T05:09:06;94334.22;;;24.20;56.02
6024;BME280;3040;42.654;23.296;2023-08-17T05:11:32;94339.75;;;24.13;56.90
6024;BME280;3040;42.654;23.296;2023-08-17T05:13:59;94336.06;;;23.67;59.04
6024;BME280;3040;42.654;23.296;2023-08-17T05:16:26;94338.38;;;23.26;60.98
6024;BME280;3040;42.654;23.296;2023-08-17T05:18:53;94307.38;;;22.80;62.22
6024;BME280;3040;42.654;23.296;2023-08-17T05:21:21;94298.31;;;22.63;62.96
6024;BME280;3040;42.654;23.296;2023-08-17T05:23:47;94212.72;;;21.89;63.90
6024;BME280;3040;42.654;23.296;2023-08-17T05:26:14;94334.13;;;22.51;64.68
6024;BME280;3040;42.654;23.296;2023-08-17T05:28:41;94336.19;;;22.44;65.41
6024;BME280;3040;42.654;23.296;2023-08-17T05:31:08;94195.88;;;21.51;66.03
6024;BME280;3040;42.654;23.296;2023-08-17T05:33:36;94329.13;;;22.77;65.33
6024;BME280;3040;42.654;23.296;2023-08-17T05:36:03;94318.06;;;23.10;63.50
6024;BME280;3040;42.654;23.296;2023-08-17T05:38:31;94339.41;;;23.55;62.52
6024;BME280;3040;42.654;23.296;2023-08-17T05:40:58;94337.09;;;23.93;61.41
6024;BME280;3040;42.654;23.296;2023-08-17T05:43:27;94308.31;;;23.96;59.61
6024;BME280;3040;42.654;23.296;2023-08-17T05:45:56;94228.41;;;23.57;58.81
6024;BME280;3040;42.654;23.296;2023-08-17T05:48:23;94340.22;;;24.63;58.77
6024;BME280;3040;42.654;23.296;2023-08-17T05:50:50;94309.81;;;24.52;58.32
6024;BME280;3040;42.654;23.296;2023-08-17T05:53:17;94351.97;;;24.93;57.88
6024;BME280;3040;42.654;23.296;2023-08-17T05:55:45;94354.69;;;25.09;57.79
6024;BME280;3040;42.654;23.296;2023-08-17T05:58:12;94365.91;;;25.27;56.56
6024;BME280;3040;42.654;23.296;2023-08-17T06:00:39;94353.97;;;25.37;56.18
6024;BME280;3040;42.654;23.296;2023-08-17T06:03:05;94355.22;;;25.49;55.58
6024;BME280;3040;42.654;23.296;2023-08-17T06:05:33;94235.00;;;24.77;54.90
6024;BME280;3040;42.654;23.296;2023-08-17T06:07:59;94357.59;;;25.63;54.84
6024;BME280;3040;42.654;23.296;2023-08-17T06:10:26;94292.72;;;25.29;54.73
6024;BME280;3040;42.654;23.296;2023-08-17T06:12:55;94354.69;;;25.70;53.99
6024;BME280;3040;42.654;23.296;2023-08-17T06:15:22;94333.00;;;25.50;54.21
6024;BME280;3040;42.654;23.296;2023-08-17T06:17:49;94336.13;;;25.65;54.93
6024;BME280;3040;42.654;23.296;2023-08-17T06:20:17;94338.88;;;25.65;54.61
6024;BME280;3040;42.654;23.296;2023-08-17T06:22:43;94357.09;;;25.81;53.71
6024;BME280;3040;42.654;23.296;2023-08-17T06:25:10;94354.63;;;25.99;53.12
6024;BME280;3040;42.654;23.296;2023-08-17T06:27:37;94357.06;;;25.97;52.62
6024;BME280;3040;42.654;23.296;2023-08-17T06:30:06;94357.59;;;25.92;53.69
6024;BME280;3040;42.654;23.296;2023-08-17T06:32:33;94358.81;;;26.16;52.82
6024;BME280;3040;42.654;23.296;2023-08-17T06:35:00;94359.56;;;26.46;52.28
6024;BME280;3040;42.654;23.296;2023-08-17T06:37:27;94357.56;;;26.71;51.04
6024;BME280;3040;42.654;23.296;2023-08-17T06:39:53;94358.78;;;26.96;50.76
6024;BME280;3040;42.654;23.296;2023-08-17T06:42:20;94356.56;;;27.16;50.20
6024;BME280;3040;42.654;23.296;2023-08-17T06:44:47;94358.59;;;27.25;50.63
6024;BME280;3040;42.654;23.296;2023-08-17T06:47:15;94359.66;;;27.40;49.54
6024;BME280;3040;42.654;23.296;2023-08-17T06:49:42;94360.31;;;27.44;48.84
6024;BME280;3040;42.654;23.296;2023-08-17T06:52:08;94359.84;;;27.58;49.49
6024;BME280;3040;42.654;23.296;2023-08-17T06:54:35;94324.16;;;27.40;49.15
6024;BME280;3040;42.654;23.296;2023-08-17T06:57:02;94355.94;;;27.81;47.85
6024;BME280;3040;42.654;23.296;2023-08-17T06:59:29;94359.63;;;28.09;47.67
6024;BME280;3040;42.654;23.296;2023-08-17T07:01:56;94359.22;;;27.98;45.40
6024;BME280;3040;42.654;23.296;2023-08-17T07:04:25;94355.59;;;27.57;45.21
6024;BME280;3040;42.654;23.296;2023-08-17T07:06:52;94335.25;;;27.58;45.37
6024;BME280;3040;42.654;23.296;2023-08-17T07:09:18;94354.69;;;28.04;46.77
6024;BME280;3040;42.654;23.296;2023-08-17T07:11:46;94358.50;;;28.19;46.87
6024;BME280;3040;42.654;23.296;2023-08-17T07:14:13;94354.94;;;28.40;45.68
6024;BME280;3040;42.654;23.296;2023-08-17T07:16:40;94360.03;;;28.51;45.36
6024;BME280;3040;42.654;23.296;2023-08-17T07:19:06;94359.84;;;28.45;43.25
6024;BME280;3040;42.654;23.296;2023-08-17T07:21:34;94352.00;;;28.65;43.06
6024;BME280;3040;42.654;23.296;2023-08-17T07:24:11;94352.44;;;28.86;41.20
6024;BME280;3040;42.654;23.296;2023-08-17T07:26:38;94348.06;;;29.06;39.71
6024;BME280;3040;42.654;23.296;2023-08-17T07:29:05;94352.81;;;29.24;40.58
6024;BME280;3040;42.654;23.296;2023-08-17T07:31:32;94238.75;;;28.63;39.73
6024;BME280;3040;42.654;23.296;2023-08-17T07:34:03;94349.97;;;29.37;38.99
6024;BME280;3040;42.654;23.296;2023-08-17T07:36:30;94324.19;;;29.16;40.04
6024;BME280;3040;42.654;23.296;2023-08-17T07:38:58;94342.38;;;29.50;39.23
6024;BME280;3040;42.654;23.296;2023-08-17T07:41:24;94320.56;;;29.28;39.30
6024;BME280;3040;42.654;23.296;2023-08-17T07:43:51;94352.25;;;29.57;39.11
6024;BME280;3040;42.654;23.296;2023-08-17T07:46:18;94350.75;;;29.56;39.14
6024;BME280;3040;42.654;23.296;2023-08-17T07:48:45;94347.84;;;29.77;39.04
6024;BME280;3040;42.654;23.296;2023-08-17T07:51:12;94351.97;;;29.82;38.11
6024;BME280;3040;42.654;23.296;2023-08-17T07:53:39;94346.19;;;29.71;38.09
6024;BME280;3040;42.654;23.296;2023-08-17T07:56:07;94350.44;;;29.81;38.33
6024;BME280;3040;42.654;23.296;2023-08-17T07:58:34;94346.31;;;30.04;37.70
6024;BME280;3040;42.654;23.296;2023-08-17T08:01:00;94341.88;;;30.15;37.56
6024;BME280;3040;42.654;23.296;2023-08-17T08:03:27;94342.19;;;30.17;38.34
6024;BME280;3040;42.654;23.296;2023-08-17T08:05:54;94342.22;;;29.99;39.15
6024;BME280;3040;42.654;23.296;2023-08-17T08:08:21;94299.88;;;30.00;39.51
6024;BME280;3040;42.654;23.296;2023-08-17T08:10:47;94330.97;;;30.39;39.16
6024;BME280;3040;42.654;23.296;2023-08-17T08:13:16;94315.97;;;30.25;38.83
6024;BME280;3040;42.654;23.296;2023-08-17T08:15:42;94299.63;;;30.31;38.60
6024;BME280;3040;42.654;23.296;2023-08-17T08:18:09;94334.25;;;30.70;37.95
6024;BME280;3040;42.654;23.296;2023-08-17T08:20:36;94331.00;;;30.81;38.46
6024;BME280;3040;42.654;23.296;2023-08-17T08:23:03;94326.09;;;30.85;37.93
6024;BME280;3040;42.654;23.296;2023-08-17T08:25:30;94323.81;;;30.51;38.12
6024;BME280;3040;42.654;23.296;2023-08-17T08:27:57;94317.56;;;30.50;38.97
6024;BME280;3040;42.654;23.296;2023-08-17T08:30:25;94321.53;;;30.40;39.42
6024;BME280;3040;42.654;23.296;2023-08-17T08:32:51;94329.09;;;30.63;38.83
6024;BME280;3040;42.654;23.296;2023-08-17T08:35:20;94328.97;;;30.91;38.84
6024;BME280;3040;42.654;23.296;2023-08-17T08:37:49;94323.91;;;30.98;38.48
6024;BME280;3040;42.654;23.296;2023-08-17T08:40:17;94325.75;;;31.25;37.18
6024;BME280;3040;42.654;23.296;2023-08-17T08:42:44;94220.34;;;30.66;37.13
6024;BME280;3040;42.654;23.296;2023-08-17T08:45:11;94330.03;;;31.41;36.59
6024;BME280;3040;42.654;23.296;2023-08-17T08:47:40;94326.94;;;31.00;37.60
6024;BME280;3040;42.654;23.296;2023-08-17T08:50:09;94292.84;;;30.83;38.22
6024;BME280;3040;42.654;23.296;2023-08-17T08:52:42;94316.03;;;31.39;37.44
6024;BME280;3040;42.654;23.296;2023-08-17T08:55:11;94317.06;;;31.65;37.64
6024;BME280;3040;42.654;23.296;2023-08-17T08:57:39;94313.59;;;31.94;36.51
6024;BME280;3040;42.654;23.296;2023-08-17T09:00:07;94318.75;;;32.16;36.02
6024;BME280;3040;42.654;23.296;2023-08-17T09:02:35;94317.53;;;32.17;35.77
6024;BME280;3040;42.654;23.296;2023-08-17T09:05:05;94273.97;;;32.30;35.55
6024;BME280;3040;42.654;23.296;2023-08-17T09:07:32;94309.81;;;32.21;35.74
6024;BME280;3040;42.654;23.296;2023-08-17T09:09:59;94305.25;;;31.88;35.99
6024;BME280;3040;42.654;23.296;2023-08-17T09:12:26;94290.06;;;32.08;36.61
6024;BME280;3040;42.654;23.296;2023-08-17T09:14:53;94305.22;;;32.62;35.42
6024;BME280;3040;42.654;23.296;2023-08-17T09:17:23;94303.06;;;33.01;33.90
6024;BME280;3040;42.654;23.296;2023-08-17T09:19:51;94302.00;;;33.33;33.82
6024;BME280;3040;42.654;23.296;2023-08-17T09:22:23;94297.84;;;33.64;33.50
6024;BME280;3040;42.654;23.296;2023-08-17T09:24:51;94301.34;;;33.84;32.82
6024;BME280;3040;42.654;23.296;2023-08-17T09:27:18;94298.63;;;34.16;32.56
6024;BME280;3040;42.654;23.296;2023-08-17T09:29:44;94288.13;;;34.46;31.10
6024;BME280;3040;42.654;23.296;2023-08-17T09:32:14;94266.22;;;34.42;31.95
6024;BME280;3040;42.654;23.296;2023-08-17T09:34:41;94274.59;;;34.48;31.11
6024;BME280;3040;42.654;23.296;2023-08-17T09:37:08;94278.47;;;34.67;30.88
6024;BME280;3040;42.654;23.296;2023-08-17T09:39:36;94158.09;;;33.81;30.06
6024;BME280;3040;42.654;23.296;2023-08-17T09:42:03;94273.09;;;33.95;31.33
6024;BME280;3040;42.654;23.296;2023-08-17T09:44:33;94239.22;;;33.69;31.20
6024;BME280;3040;42.654;23.296;2023-08-17T09:47:00;94228.88;;;34.15;30.63
6024;BME280;3040;42.654;23.296;2023-08-17T09:49:30;94280.09;;;34.48;30.08
6024;BME280;3040;42.654;23.296;2023-08-17T09:51:59;94276.88;;;33.11;31.92
6024;BME280;3040;42.654;23.296;2023-08-17T09:54:26;94266.69;;;33.58;30.93
6024;BME280;3040;42.654;23.296;2023-08-17T09:56:55;94267.09;;;34.22;30.38
6024;BME280;3040;42.654;23.296;2023-08-17T09:59:22;94261.72;;;34.39;29.81
6024;BME280;3040;42.654;23.296;2023-08-17T10:01:51;94261.09;;;34.61;29.20
6024;BME280;3040;42.654;23.296;2023-08-17T10:04:20;94240.50;;;34.99;28.56
6024;BME280;3040;42.654;23.296;2023-08-17T10:06:48;94255.78;;;35.37;27.65
6024;BME280;3040;42.654;23.296;2023-08-17T10:09:23;94251.00;;;35.43;27.45
6024;BME280;3040;42.654;23.296;2023-08-17T10:11:52;94252.13;;;35.84;26.60
6024;BME280;3040;42.654;23.296;2023-08-17T10:14:25;94260.72;;;35.98;27.19
6024;BME280;3040;42.654;23.296;2023-08-17T10:16:57;94250.41;;;36.04;26.73
6024;BME280;3040;42.654;23.296;2023-08-17T10:19:33;94239.81;;;35.80;26.97
6024;BME280;3040;42.654;23.296;2023-08-17T10:22:08;94188.94;;;35.66;26.64
6024;BME280;3040;42.654;23.296;2023-08-17T10:24:35;94249.94;;;36.22;25.87
6024;BME280;3040;42.654;23.296;2023-08-17T10:27:05;94246.66;;;36.29;26.10
6024;BME280;3040;42.654;23.296;2023-08-17T10:29:34;94043.00;;;35.11;25.67
6024;BME280;3040;42.654;23.296;2023-08-17T10:32:02;94226.53;;;36.23;25.82
6024;BME280;3040;42.654;23.296;2023-08-17T10:34:29;94255.19;;;36.76;25.39
6024;BME280;3040;42.654;23.296;2023-08-17T10:36:56;94249.56;;;37.09;24.46
6024;BME280;3040;42.654;23.296;2023-08-17T10:39:26;94255.91;;;36.98;24.93
6024;BME280;3040;42.654;23.296;2023-08-17T10:41:54;94248.31;;;37.04;24.60
6024;BME280;3040;42.654;23.296;2023-08-17T10:44:47;94250.03;;;37.30;23.87
6024;BME280;3040;42.654;23.296;2023-08-17T10:47:21;94247.47;;;37.37;23.94
6024;BME280;3040;42.654;23.296;2023-08-17T10:49:49;94248.00;;;37.30;24.53
6024;BME280;3040;42.654;23.296;2023-08-17T10:52:28;94244.69;;;37.37;23.79
6024;BME280;3040;42.654;23.296;2023-08-17T10:54:55;94242.16;;;37.34;24.05
6024;BME280;3040;42.654;23.296;2023-08-17T10:57:33;94217.09;;;37.50;23.67
6024;BME280;3040;42.654;23.296;2023-08-17T11:00:13;94222.78;;;37.28;24.06
6024;BME280;3040;42.654;23.296;2023-08-17T11:02:43;94239.88;;;37.43;22.97
6024;BME280;3040;42.654;23.296;2023-08-17T11:05:09;94231.34;;;37.82;23.73
6024;BME280;3040;42.654;23.296;2023-08-17T11:07:41;94225.66;;;38.35;22.69
6024;BME280;3040;42.654;23.296;2023-08-17T11:10:12;94219.81;;;38.68;22.80
6024;BME280;3040;42.654;23.296;2023-08-17T11:12:53;94231.41;;;38.12;22.55
6024;BME280;3040;42.654;23.296;2023-08-17T11:15:23;94221.38;;;37.98;22.84
6024;BME280;3040;42.654;23.296;2023-08-17T11:17:50;94241.44;;;37.85;22.67
6024;BME280;3040;42.654;23.296;2023-08-17T11:20:18;94227.41;;;37.67;22.87
6024;BME280;3040;42.654;23.296;2023-08-17T11:22:45;94232.00;;;37.94;23.03
6024;BME280;3040;42.654;23.296;2023-08-17T11:25:12;94217.75;;;37.21;23.81
6024;BME280;3040;42.654;23.296;2023-08-17T11:27:39;94225.78;;;37.36;23.46
6024;BME280;3040;42.654;23.296;2023-08-17T11:30:07;93873.22;;;35.75;23.33
6024;BME280;3040;42.654;23.296;2023-08-17T11:32:35;94191.31;;;38.62;23.14
6024;BME280;3040;42.654;23.296;2023-08-17T11:35:21;94218.88;;;39.08;23.13
6024;BME280;3040;42.654;23.296;2023-08-17T11:37:48;94214.56;;;39.32;22.64
6024;BME280;3040;42.654;23.296;2023-08-17T11:40:16;94198.94;;;39.66;23.31
6024;BME280;3040;42.654;23.296;2023-08-17T11:42:43;94195.44;;;39.98;22.63
6024;BME280;3040;42.654;23.296;2023-08-17T11:45:10;94205.88;;;40.42;22.21
6024;BME280;3040;42.654;23.296;2023-08-17T11:47:38;94179.84;;;40.21;21.74
6024;BME280;3040;42.654;23.296;2023-08-17T11:50:05;94202.03;;;40.58;20.79
6024;BME280;3040;42.654;23.296;2023-08-17T11:52:34;94204.91;;;40.40;19.90
6024;BME280;3040;42.654;23.296;2023-08-17T11:55:02;94186.59;;;39.62;21.70
6024;BME280;3040;42.654;23.296;2023-08-17T11:57:30;94199.31;;;39.57;22.61
6024;BME280;3040;42.654;23.296;2023-08-17T11:59:57;94208.81;;;38.57;23.33
6024;BME280;3040;42.654;23.296;2023-08-17T12:02:24;94202.97;;;38.60;24.05
6024;BME280;3040;42.654;23.296;2023-08-17T12:04:51;94192.72;;;38.50;24.17
6024;BME280;3040;42.654;23.296;2023-08-17T12:07:19;94199.50;;;39.22;24.05
6024;BME280;3040;42.654;23.296;2023-08-17T12:09:48;94192.06;;;39.30;23.18
6024;BME280;3040;42.654;23.296;2023-08-17T12:12:17;94179.59;;;39.18;23.41
6024;BME280;3040;42.654;23.296;2023-08-17T12:14:46;94180.91;;;38.92;23.61
6024;BME280;3040;42.654;23.296;2023-08-17T12:17:14;94193.16;;;38.54;24.35
6024;BME280;3040;42.654;23.296;2023-08-17T12:19:42;94178.91;;;37.73;25.34
6024;BME280;3040;42.654;23.296;2023-08-17T12:22:09;94188.41;;;37.42;25.81
6024;BME280;3040;42.654;23.296;2023-08-17T12:24:37;94190.59;;;37.96;25.03
6024;BME280;3040;42.654;23.296;2023-08-17T12:27:06;94154.88;;;38.65;24.31
6024;BME280;3040;42.654;23.296;2023-08-17T12:29:33;94177.53;;;39.42;23.66
6024;BME280;3040;42.654;23.296;2023-08-17T12:32:01;94181.31;;;39.21;23.49
6024;BME280;3040;42.654;23.296;2023-08-17T12:34:28;94189.19;;;38.74;24.32
6024;BME280;3040;42.654;23.296;2023-08-17T12:36:55;94133.16;;;38.40;23.86
6024;BME280;3040;42.654;23.296;2023-08-17T12:39:21;94184.66;;;38.71;23.79
6024;BME280;3040;42.654;23.296;2023-08-17T12:41:48;94186.41;;;38.19;24.83
6024;BME280;3040;42.654;23.296;2023-08-17T12:44:16;94167.00;;;38.14;25.21
6024;BME280;3040;42.654;23.296;2023-08-17T12:46:43;94185.19;;;37.79;26.20
6024;BME280;3040;42.654;23.296;2023-08-17T12:49:10;94188.88;;;37.46;26.05
6024;BME280;3040;42.654;23.296;2023-08-17T12:51:37;94191.78;;;37.71;25.95
6024;BME280;3040;42.654;23.296;2023-08-17T12:54:04;94176.91;;;37.68;25.80
6024;BME280;3040;42.654;23.296;2023-08-17T12:56:33;94194.03;;;37.31;27.07
6024;BME280;3040;42.654;23.296;2023-08-17T12:59:00;94179.25;;;37.01;27.74
6024;BME280;3040;42.654;23.296;2023-08-17T13:01:28;94171.91;;;37.09;28.37
6024;BME280;3040;42.654;23.296;2023-08-17T13:03:55;94193.16;;;36.90;29.89
6024;BME280;3040;42.654;23.296;2023-08-17T13:06:22;94187.69;;;36.56;30.20
6024;BME280;3040;42.654;23.296;2023-08-17T13:08:49;94180.94;;;36.41;30.11
6024;BME280;3040;42.654;23.296;2023-08-17T13:11:16;94185.72;;;36.29;30.86
6024;BME280;3040;42.654;23.296;2023-08-17T13:13:42;94193.78;;;36.05;31.18